Ariane — 7829 — position and weather

sailwx.info

Track history (hours):
 
Tides and Currents Weather Stations Pressure Air Temp Water Temp Dewpoint Dewpoint Depression Visibility Wind Speed Wind Dir Waves Ship Positions

Ariane

Last reported at 2017-Aug-21 21:22 UTC. Time now 2017-Sep-24 05:10 UTC.
Position N 38°38' W 009°07'.
Warning: this ship's position is 33 days out of date.

Length 17 m.

Type: Sailing vessel. MMSI: 211431330.

Date/timePositionNaut miles runAvg speedWind from/ knotsBaromVisibWave heightAir tempDewpointWater temp
2017-Aug-21 21:22N 38°38' W 009°07'0 0.0
2017-Aug-21 21:00N 38°38' W 009°07'0 0.0
2017-Aug-20 13:11N 38°38' W 009°07'0 0.0
2017-Aug-20 12:59N 38°38' W 009°07'0 0.0
2017-Aug-20 12:20N 38°38' W 009°07'0 0.0
2017-Aug-20 07:23N 38°38' W 009°07'0 0.0
2017-Aug-20 06:59N 38°38' W 009°07'0 0.0
2017-Aug-20 06:26N 38°38' W 009°07'0 0.0
2017-Aug-20 05:56N 38°38' W 009°07'0 0.0
2017-Aug-20 05:29N 38°38' W 009°07'0 0.0
2017-Aug-20 04:56N 38°38' W 009°07'0 0.0
2017-Aug-20 04:29N 38°38' W 009°07'0 0.0
2017-Aug-20 03:53N 38°38' W 009°07'0 0.0
2017-Aug-20 03:29N 38°38' W 009°07'0 0.0
2017-Aug-20 02:53N 38°38' W 009°07'0 0.0
2017-Aug-20 02:29N 38°38' W 009°07'0 0.0
2017-Aug-19 13:53N 38°38' W 009°07'0 0.1
2017-Aug-19 11:01N 38°38' W 009°07'1 4.0
2017-Aug-19 10:50N 38°39' W 009°06'2 5.9
2017-Aug-19 10:30N 38°40' W 009°08'0 0.6
2017-Aug-19 09:59N 38°40' W 009°07'2 0.1
2017-Aug-18 17:24N 38°39' W 009°06'2 4.2
2017-Aug-18 17:00N 38°40' W 009°08'3 4.3
2017-Aug-18 16:24N 38°41' W 009°10'2 4.1
2017-Aug-18 16:00N 38°41' W 009°12'3 4.1
2017-Aug-18 15:23N 38°41' W 009°16'2 3.7
2017-Aug-18 14:59N 38°41' W 009°18'3 5.0
2017-Aug-18 14:18N 38°41' W 009°13'1 0.7
2017-Aug-18 13:04N 38°42' W 009°12'0 1.5
2017-Aug-18 13:00N 38°42' W 009°12'3 5.1
2017-Aug-18 12:23N 38°41' W 009°08'3 4.9
2017-Aug-18 11:51N 38°39' W 009°06'1 2.2
2017-Aug-18 11:30N 38°38' W 009°07'0 0.8
2017-Aug-18 10:59N 38°38' W 009°07'0 0.0
2017-Aug-18 10:29N 38°38' W 009°07'0 0.0
2017-Aug-18 09:50N 38°38' W 009°07'0 0.0
2017-Aug-18 09:29N 38°38' W 009°07'0 0.0
2017-Aug-18 08:59N 38°38' W 009°07'0 0.0
2017-Aug-18 07:47N 38°38' W 009°07'0 0.0
2017-Aug-18 07:29N 38°38' W 009°07'0 0.0
2017-Aug-18 06:56N 38°38' W 009°07'0 0.0
2017-Aug-18 06:29N 38°38' W 009°07'0 0.0
2017-Aug-18 05:59N 38°38' W 009°07'0 0.0
2017-Aug-18 05:23N 38°38' W 009°07'0 0.0
2017-Aug-18 04:56N 38°38' W 009°07'0 0.0
2017-Aug-18 04:26N 38°38' W 009°07'0 0.0
2017-Aug-18 03:59N 38°38' W 009°07'0 0.0
2017-Aug-18 03:26N 38°38' W 009°07'0 0.0
2017-Aug-18 02:53N 38°38' W 009°07'0 0.0
2017-Aug-18 02:29N 38°38' W 009°07'0 0.0
2017-Aug-18 01:56N 38°38' W 009°07'0 0.0
2017-Aug-18 01:29N 38°38' W 009°07'0 0.0
2017-Aug-18 00:56N 38°38' W 009°07'0 0.0
2017-Aug-18 00:29N 38°38' W 009°07'0 0.0
2017-Aug-17 23:56N 38°38' W 009°07'0 0.0
2017-Aug-17 23:29N 38°38' W 009°07'0 0.0
2017-Aug-17 22:44N 38°38' W 009°07'0 0.0
2017-Aug-17 22:23N 38°38' W 009°07'0 0.0
2017-Aug-17 21:14N 38°38' W 009°07'0 0.0
2017-Aug-17 20:59N 38°38' W 009°07'0 0.0
2017-Aug-17 20:11N 38°38' W 009°07'0 0.0
2017-Aug-17 19:53N 38°38' W 009°07'0 0.0
2017-Aug-17 19:23N 38°38' W 009°07'0 0.0
2017-Aug-17 18:56N 38°38' W 009°07'0 0.0
2017-Aug-17 18:23N 38°38' W 009°07'0 0.0
2017-Aug-17 17:44N 38°38' W 009°07'0 0.0
2017-Aug-17 16:17N 38°38' W 009°07'0 0.0
2017-Aug-17 15:47N 38°38' W 009°07'0 0.0
2017-Aug-17 15:29N 38°38' W 009°07'0 0.0
2017-Aug-17 14:59N 38°38' W 009°07'0 0.0
2017-Aug-17 14:29N 38°38' W 009°07'0 0.0
2017-Aug-17 13:59N 38°38' W 009°07'0 0.0
2017-Aug-17 13:17N 38°38' W 009°07'0 0.0
2017-Aug-16 01:38N 38°38' W 009°07'0 0.0
2017-Aug-16 01:26N 38°38' W 009°07'0 0.0
2017-Aug-16 00:59N 38°38' W 009°07'0 0.0
2017-Aug-16 00:29N 38°38' W 009°07'0 0.0
2017-Aug-15 13:25N 38°38' W 009°07'0 0.0
2017-Aug-15 12:37N 38°38' W 009°07'0 0.0
2017-Aug-15 12:28N 38°38' W 009°07'0 0.0
2017-Aug-15 11:58N 38°38' W 009°07'0 0.0
2017-Aug-14 22:34N 38°38' W 009°07'0 0.0
2017-Aug-14 22:28N 38°38' W 009°07'0 0.0
2017-Aug-14 01:32N 38°38' W 009°07'0 0.0
2017-Aug-14 01:29N 38°38' W 009°07'0 0.0
2017-Aug-14 00:59N 38°38' W 009°07'0 0.0
2017-Aug-14 00:29N 38°38' W 009°07'0 0.0
2017-Aug-13 23:47N 38°38' W 009°07'0 0.0
2017-Aug-13 23:29N 38°38' W 009°07'0 0.0
2017-Aug-13 22:56N 38°38' W 009°07'0 0.0
2017-Aug-13 22:29N 38°38' W 009°07'0 0.0
2017-Aug-13 21:59N 38°38' W 009°07'0 0.0
2017-Aug-13 21:29N 38°38' W 009°07'0 0.0
2017-Aug-13 20:59N 38°38' W 009°07'0 0.0
2017-Aug-13 20:20N 38°38' W 009°07'0 0.0
2017-Aug-13 19:53N 38°38' W 009°07'0 0.0
2017-Aug-13 19:26N 38°38' W 009°07'0 0.0
2017-Aug-13 18:59N 38°38' W 009°07'0 0.0
2017-Aug-13 18:23N 38°38' W 009°07'0 0.0
2017-Aug-13 17:56N 38°38' W 009°07'0 0.0
2017-Aug-13 17:26N 38°38' W 009°07'0 0.0
2017-Aug-13 16:53N 38°38' W 009°07'0 0.0
2017-Aug-13 16:26N 38°38' W 009°07'0 0.0
2017-Aug-12 00:24N 38°38' W 009°07'0 0.0
2017-Aug-12 00:00N 38°38' W 009°07'0 0.0
2017-Aug-11 23:24N 38°38' W 009°07'0 0.0
2017-Aug-11 23:00N 38°38' W 009°07'0 0.0
2017-Aug-11 22:27N 38°38' W 009°07'0 0.0
2017-Aug-11 22:00N 38°38' W 009°07'  
Track history (hours):
 
Tides and Currents Weather Stations Pressure Air Temp Water Temp Dewpoint Dewpoint Depression Visibility Wind Speed Wind Dir Waves Ship Positions

Ariane

Last reported at 2017-Aug-21 21:22 UTC. Time now 2017-Sep-24 05:10 UTC.
Position N 38°38' W 009°07'.
Warning: this ship's position is 33 days out of date.

Length 17 m.

Type: Sailing vessel. MMSI: 211431330.

Date/timePositionNaut miles runAvg speedWind from/ knotsBaromVisibWave heightAir tempDewpointWater temp
2017-Aug-21 21:22N 38°38' W 009°07'0 0.0
2017-Aug-21 21:00N 38°38' W 009°07'0 0.0
2017-Aug-20 13:11N 38°38' W 009°07'0 0.0
2017-Aug-20 12:59N 38°38' W 009°07'0 0.0
2017-Aug-20 12:20N 38°38' W 009°07'0 0.0
2017-Aug-20 07:23N 38°38' W 009°07'0 0.0
2017-Aug-20 06:59N 38°38' W 009°07'0 0.0
2017-Aug-20 06:26N 38°38' W 009°07'0 0.0
2017-Aug-20 05:56N 38°38' W 009°07'0 0.0
2017-Aug-20 05:29N 38°38' W 009°07'0 0.0
2017-Aug-20 04:56N 38°38' W 009°07'0 0.0
2017-Aug-20 04:29N 38°38' W 009°07'0 0.0
2017-Aug-20 03:53N 38°38' W 009°07'0 0.0
2017-Aug-20 03:29N 38°38' W 009°07'0 0.0
2017-Aug-20 02:53N 38°38' W 009°07'0 0.0
2017-Aug-20 02:29N 38°38' W 009°07'0 0.0
2017-Aug-19 13:53N 38°38' W 009°07'0 0.1
2017-Aug-19 11:01N 38°38' W 009°07'1 4.0
2017-Aug-19 10:50N 38°39' W 009°06'2 5.9
2017-Aug-19 10:30N 38°40' W 009°08'0 0.6
2017-Aug-19 09:59N 38°40' W 009°07'2 0.1
2017-Aug-18 17:24N 38°39' W 009°06'2 4.2
2017-Aug-18 17:00N 38°40' W 009°08'3 4.3
2017-Aug-18 16:24N 38°41' W 009°10'2 4.1
2017-Aug-18 16:00N 38°41' W 009°12'3 4.1
2017-Aug-18 15:23N 38°41' W 009°16'2 3.7
2017-Aug-18 14:59N 38°41' W 009°18'3 5.0
2017-Aug-18 14:18N 38°41' W 009°13'1 0.7
2017-Aug-18 13:04N 38°42' W 009°12'0 1.5
2017-Aug-18 13:00N 38°42' W 009°12'3 5.1
2017-Aug-18 12:23N 38°41' W 009°08'3 4.9
2017-Aug-18 11:51N 38°39' W 009°06'1 2.2
2017-Aug-18 11:30N 38°38' W 009°07'0 0.8
2017-Aug-18 10:59N 38°38' W 009°07'0 0.0
2017-Aug-18 10:29N 38°38' W 009°07'0 0.0
2017-Aug-18 09:50N 38°38' W 009°07'0 0.0
2017-Aug-18 09:29N 38°38' W 009°07'0 0.0
2017-Aug-18 08:59N 38°38' W 009°07'0 0.0
2017-Aug-18 07:47N 38°38' W 009°07'0 0.0
2017-Aug-18 07:29N 38°38' W 009°07'0 0.0
2017-Aug-18 06:56N 38°38' W 009°07'0 0.0
2017-Aug-18 06:29N 38°38' W 009°07'0 0.0
2017-Aug-18 05:59N 38°38' W 009°07'0 0.0
2017-Aug-18 05:23N 38°38' W 009°07'0 0.0
2017-Aug-18 04:56N 38°38' W 009°07'0 0.0
2017-Aug-18 04:26N 38°38' W 009°07'0 0.0
2017-Aug-18 03:59N 38°38' W 009°07'0 0.0
2017-Aug-18 03:26N 38°38' W 009°07'0 0.0
2017-Aug-18 02:53N 38°38' W 009°07'0 0.0
2017-Aug-18 02:29N 38°38' W 009°07'0 0.0
2017-Aug-18 01:56N 38°38' W 009°07'0 0.0
2017-Aug-18 01:29N 38°38' W 009°07'0 0.0
2017-Aug-18 00:56N 38°38' W 009°07'0 0.0
2017-Aug-18 00:29N 38°38' W 009°07'0 0.0
2017-Aug-17 23:56N 38°38' W 009°07'0 0.0
2017-Aug-17 23:29N 38°38' W 009°07'0 0.0
2017-Aug-17 22:44N 38°38' W 009°07'0 0.0
2017-Aug-17 22:23N 38°38' W 009°07'0 0.0
2017-Aug-17 21:14N 38°38' W 009°07'0 0.0
2017-Aug-17 20:59N 38°38' W 009°07'0 0.0
2017-Aug-17 20:11N 38°38' W 009°07'0 0.0
2017-Aug-17 19:53N 38°38' W 009°07'0 0.0
2017-Aug-17 19:23N 38°38' W 009°07'0 0.0
2017-Aug-17 18:56N 38°38' W 009°07'0 0.0
2017-Aug-17 18:23N 38°38' W 009°07'0 0.0
2017-Aug-17 17:44N 38°38' W 009°07'0 0.0
2017-Aug-17 16:17N 38°38' W 009°07'0 0.0
2017-Aug-17 15:47N 38°38' W 009°07'0 0.0
2017-Aug-17 15:29N 38°38' W 009°07'0 0.0
2017-Aug-17 14:59N 38°38' W 009°07'0 0.0
2017-Aug-17 14:29N 38°38' W 009°07'0 0.0
2017-Aug-17 13:59N 38°38' W 009°07'0 0.0
2017-Aug-17 13:17N 38°38' W 009°07'0 0.0
2017-Aug-16 01:38N 38°38' W 009°07'0 0.0
2017-Aug-16 01:26N 38°38' W 009°07'0 0.0
2017-Aug-16 00:59N 38°38' W 009°07'0 0.0
2017-Aug-16 00:29N 38°38' W 009°07'0 0.0
2017-Aug-15 13:25N 38°38' W 009°07'0 0.0
2017-Aug-15 12:37N 38°38' W 009°07'0 0.0
2017-Aug-15 12:28N 38°38' W 009°07'0 0.0
2017-Aug-15 11:58N 38°38' W 009°07'0 0.0
2017-Aug-14 22:34N 38°38' W 009°07'0 0.0
2017-Aug-14 22:28N 38°38' W 009°07'0 0.0
2017-Aug-14 01:32N 38°38' W 009°07'0 0.0
2017-Aug-14 01:29N 38°38' W 009°07'0 0.0
2017-Aug-14 00:59N 38°38' W 009°07'0 0.0
2017-Aug-14 00:29N 38°38' W 009°07'0 0.0
2017-Aug-13 23:47N 38°38' W 009°07'0 0.0
2017-Aug-13 23:29N 38°38' W 009°07'0 0.0
2017-Aug-13 22:56N 38°38' W 009°07'0 0.0
2017-Aug-13 22:29N 38°38' W 009°07'0 0.0
2017-Aug-13 21:59N 38°38' W 009°07'0 0.0
2017-Aug-13 21:29N 38°38' W 009°07'0 0.0
2017-Aug-13 20:59N 38°38' W 009°07'0 0.0
2017-Aug-13 20:20N 38°38' W 009°07'0 0.0
2017-Aug-13 19:53N 38°38' W 009°07'0 0.0
2017-Aug-13 19:26N 38°38' W 009°07'0 0.0
2017-Aug-13 18:59N 38°38' W 009°07'0 0.0
2017-Aug-13 18:23N 38°38' W 009°07'0 0.0
2017-Aug-13 17:56N 38°38' W 009°07'0 0.0
2017-Aug-13 17:26N 38°38' W 009°07'0 0.0
2017-Aug-13 16:53N 38°38' W 009°07'0 0.0
2017-Aug-13 16:26N 38°38' W 009°07'0 0.0
2017-Aug-12 00:24N 38°38' W 009°07'0 0.0
2017-Aug-12 00:00N 38°38' W 009°07'0 0.0
2017-Aug-11 23:24N 38°38' W 009°07'0 0.0
2017-Aug-11 23:00N 38°38' W 009°07'0 0.0
2017-Aug-11 22:27N 38°38' W 009°07'0 0.0
2017-Aug-11 22:00N 38°38' W 009°07'  

Dump ship's entire track history